Time;durP1;ratioP1;P1;durP2;ratioP2;P2;SDS_P1;SDS_P2;PMS_P1;PMS_P2;Temp;Humidity;BMP_temperature;BMP_pressure;BME280_temperature;BME280_humidity;BME280_pressure;Samples;Min_cycle;Max_cycle;Signal;HPM_P1;HPM_P2
2021/05/04 00:01:39;;;;;;;7.13;5.70;;;7.40;58.70;;;;;;5029114;28;20060;-64
2021/05/04 00:04:10;;;;;;;6.35;5.53;;;7.40;58.80;;;;;;5033343;28;20040;-64
2021/05/04 00:06:38;;;;;;;6.22;4.97;;;7.30;58.90;;;;;;5034678;28;20036;-64
2021/05/04 00:09:09;;;;;;;8.02;6.03;;;7.20;59.00;;;;;;5034033;28;20042;-64
2021/05/04 00:11:37;;;;;;;8.68;6.35;;;7.20;59.10;;;;;;5034520;28;20037;-64
2021/05/04 00:14:05;;;;;;;6.70;5.63;;;7.20;59.20;;;;;;5033083;28;20037;-64
2021/05/04 00:16:33;;;;;;;8.55;5.85;;;7.10;59.30;;;;;;5035824;28;20095;-64
2021/05/04 00:19:03;;;;;;;6.63;5.60;;;7.10;59.60;;;;;;5031548;28;20053;-64
2021/05/04 00:21:33;;;;;;;6.78;5.88;;;7.10;59.80;;;;;;5034691;28;20034;-63
2021/05/04 00:24:01;;;;;;;6.80;5.55;;;7.00;59.90;;;;;;5032613;28;20508;-65
2021/05/04 00:26:27;;;;;;;7.78;6.03;;;7.00;60.10;;;;;;5035468;28;20519;-64
2021/05/04 00:28:53;;;;;;;7.32;5.90;;;7.00;59.80;;;;;;5036047;28;20045;-64
2021/05/04 00:31:21;;;;;;;7.40;5.70;;;6.90;59.80;;;;;;5032087;28;20033;-64
2021/05/04 00:33:51;;;;;;;7.63;6.03;;;6.90;60.00;;;;;;5036196;28;20033;-64
2021/05/04 00:36:17;;;;;;;7.28;6.10;;;6.90;60.00;;;;;;5036970;28;20041;-65
2021/05/04 00:38:45;;;;;;;6.55;5.68;;;6.90;60.10;;;;;;5033983;28;20037;-63
2021/05/04 00:41:15;;;;;;;8.30;5.82;;;6.80;60.20;;;;;;5034140;28;20033;-64
2021/05/04 00:43:41;;;;;;;8.18;5.97;;;6.80;60.50;;;;;;5030962;28;20116;-64
2021/05/04 00:46:11;;;;;;;7.50;6.22;;;6.70;60.30;;;;;;5038199;28;20112;-64
2021/05/04 00:48:37;;;;;;;7.50;5.68;;;6.60;60.50;;;;;;5031451;28;20076;-64
2021/05/04 00:51:05;;;;;;;10.40;7.07;;;6.60;60.40;;;;;;5033564;28;20041;-64
2021/05/04 00:53:37;;;;;;;15.05;8.85;;;6.50;60.70;;;;;;5028598;28;20042;-64
2021/05/04 00:56:08;;;;;;;17.98;9.80;;;6.50;60.80;;;;;;5042268;28;20049;-64
2021/05/04 00:58:37;;;;;;;17.58;9.63;;;6.50;61.10;;;;;;5031167;28;20033;-64
2021/05/04 01:01:05;;;;;;;18.48;10.40;;;6.40;61.10;;;;;;5027636;28;20037;-64
2021/05/04 01:03:31;;;;;;;20.83;10.65;;;6.40;61.20;;;;;;5032861;28;20033;-65
2021/05/04 01:05:59;;;;;;;17.20;9.65;;;6.30;61.10;;;;;;5033586;28;20107;-65
2021/05/04 01:08:31;;;;;;;16.10;9.50;;;6.30;61.60;;;;;;5036081;28;20037;-65
2021/05/04 01:10:59;;;;;;;15.65;8.77;;;6.30;61.60;;;;;;5031215;28;20124;-65
2021/05/04 01:13:27;;;;;;;12.32;7.80;;;6.20;61.60;;;;;;5032025;28;20087;-63
2021/05/04 01:15:58;;;;;;;9.88;6.85;;;6.20;62.60;;;;;;5032039;28;20460;-63
2021/05/04 01:18:28;;;;;;;12.10;7.82;;;6.10;62.30;;;;;;5034671;28;20508;-65
2021/05/04 01:21:01;;;;;;;11.15;6.65;;;6.10;62.30;;;;;;5033707;28;20041;-64
2021/05/04 01:23:26;;;;;;;9.32;6.55;;;6.00;62.80;;;;;;5035340;28;20033;-64
2021/05/04 01:25:52;;;;;;;8.45;6.38;;;6.00;62.90;;;;;;5036423;28;20494;-64
2021/05/04 01:28:22;;;;;;;8.57;6.45;;;6.00;62.80;;;;;;5029686;28;20029;-64
2021/05/04 01:30:52;;;;;;;8.48;5.63;;;6.00;63.30;;;;;;5032326;28;20076;-64
2021/05/04 01:33:23;;;;;;;7.40;5.85;;;6.00;63.50;;;;;;5032862;28;20511;-63
2021/05/04 01:35:48;;;;;;;7.45;6.00;;;6.10;64.30;;;;;;5032228;28;20104;-64
2021/05/04 01:38:17;;;;;;;7.95;6.35;;;6.10;64.20;;;;;;5033009;28;20159;-64
2021/05/04 01:40:43;;;;;;;6.75;5.72;;;6.20;64.40;;;;;;5031591;28;20037;-63
2021/05/04 01:43:11;;;;;;;9.15;5.88;;;6.30;64.40;;;;;;5028634;28;20567;-64
2021/05/04 01:45:41;;;;;;;7.28;5.78;;;6.40;64.80;;;;;;5030910;28;20044;-64
2021/05/04 01:48:09;;;;;;;7.78;6.18;;;6.50;64.90;;;;;;5028378;28;20040;-63
2021/05/04 01:50:39;;;;;;;8.93;6.40;;;6.50;64.60;;;;;;5032526;28;20074;-64
2021/05/04 01:53:04;;;;;;;7.68;5.72;;;6.60;64.90;;;;;;5035103;28;20443;-63
2021/05/04 01:55:35;;;;;;;7.07;5.93;;;6.60;64.60;;;;;;5035146;28;20029;-64
2021/05/04 01:58:05;;;;;;;6.05;5.28;;;6.60;64.40;;;;;;5032018;28;20537;-64
2021/05/04 02:00:35;;;;;;;7.80;6.00;;;6.60;64.30;;;;;;5033568;28;20374;-64
2021/05/04 02:03:05;;;;;;;7.28;5.72;;;6.60;64.50;;;;;;5033224;28;20123;-64
2021/05/04 02:05:36;;;;;;;9.40;5.65;;;6.60;64.60;;;;;;5036660;28;20033;-64
2021/05/04 02:08:03;;;;;;;7.10;5.45;;;6.60;64.60;;;;;;5034849;28;20033;-65
2021/05/04 02:10:34;;;;;;;7.05;5.38;;;6.60;64.30;;;;;;5028717;28;20029;-64
2021/05/04 02:13:02;;;;;;;6.25;5.50;;;6.60;64.20;;;;;;5035248;28;20034;-64
2021/05/04 02:15:32;;;;;;;6.80;5.95;;;6.60;64.40;;;;;;5034834;28;20056;-65
2021/05/04 02:18:00;;;;;;;8.85;6.07;;;6.60;64.30;;;;;;5029755;28;20049;-64
2021/05/04 02:20:28;;;;;;;6.43;5.60;;;6.60;64.00;;;;;;5026847;28;20059;-64
2021/05/04 02:22:56;;;;;;;6.97;5.78;;;6.60;64.10;;;;;;5034848;28;20033;-64
2021/05/04 02:25:24;;;;;;;7.45;5.88;;;6.60;64.30;;;;;;5033781;28;20057;-64
2021/05/04 02:27:50;;;;;;;6.70;5.57;;;6.50;64.40;;;;;;5031193;28;20036;-65
2021/05/04 02:30:21;;;;;;;7.05;5.82;;;6.50;64.60;;;;;;5029837;28;20095;-64
2021/05/04 02:32:49;;;;;;;9.07;6.15;;;6.60;65.20;;;;;;5030965;28;20029;-63
2021/05/04 02:35:17;;;;;;;8.27;6.28;;;6.60;65.20;;;;;;5033425;28;20501;-64
2021/05/04 02:37:47;;;;;;;8.70;5.80;;;6.60;65.60;;;;;;5032487;28;20084;-65
2021/05/04 02:40:17;;;;;;;8.48;6.13;;;6.70;66.00;;;;;;5031401;28;20424;-64
2021/05/04 02:42:46;;;;;;;7.22;5.75;;;6.70;66.20;;;;;;5032142;28;20496;-64
2021/05/04 02:45:17;;;;;;;8.50;6.55;;;6.80;66.00;;;;;;5035047;28;20047;-65
2021/05/04 02:47:43;;;;;;;8.27;6.53;;;6.80;65.90;;;;;;5029386;28;20034;-64
2021/05/04 02:50:11;;;;;;;8.02;6.15;;;6.80;65.90;;;;;;5028869;28;20038;-64
2021/05/04 02:52:42;;;;;;;8.35;5.95;;;6.90;66.00;;;;;;5034755;28;20381;-64
2021/05/04 02:55:14;;;;;;;7.65;5.85;;;7.00;66.20;;;;;;5034734;28;20396;-64
2021/05/04 02:57:45;;;;;;;7.28;6.43;;;7.00;66.10;;;;;;5030406;28;20061;-64
2021/05/04 03:00:13;;;;;;;8.07;5.45;;;7.10;66.20;;;;;;5034188;28;20044;-64
2021/05/04 03:02:44;;;;;;;7.45;6.22;;;7.10;66.20;;;;;;5033355;28;20057;-65
2021/05/04 03:05:17;;;;;;;6.43;5.82;;;7.10;66.20;;;;;;5034373;28;20034;-65
2021/05/04 03:07:47;;;;;;;6.80;6.10;;;7.20;66.20;;;;;;5033613;28;20448;-63
2021/05/04 03:10:18;;;;;;;6.63;5.47;;;7.20;66.00;;;;;;5032342;28;20033;-64
2021/05/04 03:12:50;;;;;;;7.35;5.63;;;7.30;66.00;;;;;;5028667;28;20025;-62
2021/05/04 03:15:21;;;;;;;6.63;5.72;;;7.30;65.90;;;;;;5035600;28;20033;-63
2021/05/04 03:17:51;;;;;;;6.45;5.68;;;7.30;65.90;;;;;;5035282;28;20029;-64
2021/05/04 03:20:19;;;;;;;7.07;5.60;;;7.40;66.00;;;;;;5036490;28;20029;-64
2021/05/04 03:22:47;;;;;;;6.22;5.60;;;7.40;65.90;;;;;;5036907;28;20033;-63
2021/05/04 03:25:13;;;;;;;6.75;5.65;;;7.50;65.90;;;;;;5038711;28;20051;-63
2021/05/04 03:27:43;;;;;;;7.82;6.00;;;7.50;65.70;;;;;;5037132;28;20029;-64
2021/05/04 03:30:12;;;;;;;6.82;5.20;;;7.50;65.90;;;;;;5032622;28;20037;-63
2021/05/04 03:32:44;;;;;;;6.10;5.50;;;7.50;65.60;;;;;;5030585;28;20029;-61
2021/05/04 03:35:17;;;;;;;6.25;5.63;;;7.60;65.70;;;;;;5027112;28;20493;-64
2021/05/04 03:37:47;;;;;;;6.47;5.32;;;7.50;65.60;;;;;;5036575;28;20033;-65
2021/05/04 03:40:20;;;;;;;7.90;5.47;;;7.60;65.50;;;;;;5030220;28;20033;-64
2021/05/04 03:42:53;;;;;;;5.93;5.20;;;7.60;65.70;;;;;;5034187;28;20025;-64
2021/05/04 03:45:24;;;;;;;6.95;5.47;;;7.60;65.60;;;;;;5038497;28;20060;-63
2021/05/04 03:47:52;;;;;;;6.75;5.68;;;7.60;65.50;;;;;;5030901;28;20436;-64
2021/05/04 03:50:21;;;;;;;6.78;4.95;;;7.60;65.60;;;;;;5039435;28;20047;-64
2021/05/04 03:52:51;;;;;;;7.05;5.28;;;7.60;65.50;;;;;;5037156;28;20079;-63
2021/05/04 03:55:20;;;;;;;6.28;5.10;;;7.70;66.50;;;;;;5037446;28;20798;-64
2021/05/04 03:57:48;;;;;;;6.38;5.05;;;7.70;65.70;;;;;;5035492;28;20114;-65
2021/05/04 04:00:20;;;;;;;7.10;5.30;;;7.70;65.50;;;;;;5030720;28;20026;-64
2021/05/04 04:02:47;;;;;;;6.80;5.00;;;7.70;65.70;;;;;;5033626;28;20116;-63
2021/05/04 04:05:18;;;;;;;5.70;5.07;;;7.80;65.40;;;;;;5037332;28;20515;-63
2021/05/04 04:07:48;;;;;;;5.25;4.75;;;7.80;65.60;;;;;;5030904;28;20037;-64
2021/05/04 04:10:16;;;;;;;5.93;4.63;;;7.80;65.50;;;;;;5024482;28;20412;-64
2021/05/04 04:12:42;;;;;;;4.65;4.18;;;7.90;66.20;;;;;;5024133;28;20033;-63
2021/05/04 04:15:11;;;;;;;5.10;4.60;;;7.90;65.30;;;;;;5036694;28;20037;-64
2021/05/04 04:17:42;;;;;;;21.35;11.40;;;7.90;65.30;;;;;;5035595;28;20493;-64
2021/05/04 04:20:12;;;;;;;12.88;7.97;;;8.00;65.30;;;;;;5036079;28;20508;-65
2021/05/04 04:22:40;;;;;;;6.70;5.05;;;8.00;65.10;;;;;;5030156;28;20037;-64
2021/05/04 04:25:07;;;;;;;9.05;4.90;;;8.00;64.90;;;;;;5034962;28;20603;-66
2021/05/04 04:27:35;;;;;;;7.13;4.88;;;8.10;64.90;;;;;;5033102;28;20072;-65
2021/05/04 04:30:08;;;;;;;5.30;4.65;;;8.10;64.80;;;;;;5031728;28;20030;-65
2021/05/04 04:32:41;;;;;;;7.05;5.25;;;8.10;64.90;;;;;;5035295;28;20033;-65
2021/05/04 04:35:11;;;;;;;8.38;4.40;;;8.20;64.90;;;;;;5038457;28;20034;-65
2021/05/04 04:37:40;;;;;;;5.07;4.57;;;8.20;64.60;;;;;;5037960;28;20029;-64
2021/05/04 04:40:09;;;;;;;7.22;4.80;;;8.20;64.60;;;;;;5036390;28;20382;-64
2021/05/04 04:42:37;;;;;;;11.32;4.55;;;8.20;64.50;;;;;;5034778;28;20037;-65
2021/05/04 04:45:06;;;;;;;5.88;4.57;;;8.20;64.40;;;;;;5036112;28;20408;-64
2021/05/04 04:47:36;;;;;;;4.65;4.18;;;8.30;64.50;;;;;;5038404;28;20037;-66
2021/05/04 04:50:05;;;;;;;7.65;4.50;;;8.30;64.40;;;;;;5038520;28;20064;-65
2021/05/04 04:52:35;;;;;;;4.65;4.13;;;8.30;64.30;;;;;;5036935;28;20032;-63
2021/05/04 04:55:06;;;;;;;11.55;6.22;;;8.40;64.50;;;;;;5038939;28;20033;-64
2021/05/04 04:57:37;;;;;;;16.75;8.93;;;8.40;64.30;;;;;;5037211;28;20033;-64
2021/05/04 05:00:08;;;;;;;6.85;5.30;;;8.40;64.10;;;;;;5037850;28;20152;-65
2021/05/04 05:02:36;;;;;;;4.22;3.83;;;8.50;64.10;;;;;;5035954;28;20037;-64
2021/05/04 05:05:05;;;;;;;12.00;4.07;;;8.50;64.00;;;;;;5038484;28;20029;-65
2021/05/04 05:07:30;;;;;;;5.10;3.58;;;8.60;63.80;;;;;;5036338;28;20080;-65
2021/05/04 05:09:58;;;;;;;3.95;3.65;;;8.70;63.80;;;;;;5037874;28;20525;-65
2021/05/04 05:12:28;;;;;;;5.90;3.70;;;8.70;63.60;;;;;;5031399;28;20253;-64
2021/05/04 05:15:00;;;;;;;5.35;4.85;;;8.80;63.50;;;;;;5038994;28;20037;-64
2021/05/04 05:17:25;;;;;;;5.53;4.68;;;8.90;63.40;;;;;;5035983;28;20056;-64
2021/05/04 05:19:55;;;;;;;6.35;4.93;;;8.90;63.30;;;;;;5039028;28;20064;-65
2021/05/04 05:22:26;;;;;;;6.63;4.72;;;9.00;63.50;;;;;;5035896;28;20033;-66
2021/05/04 05:24:58;;;;;;;9.00;4.88;;;9.00;63.40;;;;;;5037052;28;20508;-64
2021/05/04 05:27:25;;;;;;;8.00;5.28;;;9.10;63.50;;;;;;5034266;28;20045;-64
2021/05/04 05:29:56;;;;;;;6.65;3.63;;;9.20;63.20;;;;;;5038767;28;20033;-66
2021/05/04 05:32:24;;;;;;;3.75;3.42;;;9.20;62.90;;;;;;5036421;28;20075;-64
2021/05/04 05:34:54;;;;;;;4.47;3.38;;;9.30;62.60;;;;;;5038293;28;20036;-65
2021/05/04 05:37:22;;;;;;;4.85;3.17;;;9.30;62.40;;;;;;5035666;28;20030;-64
2021/05/04 05:39:50;;;;;;;3.45;3.15;;;9.40;62.20;;;;;;5037985;28;20036;-65
2021/05/04 05:42:18;;;;;;;3.67;3.15;;;9.50;62.10;;;;;;5031781;28;20072;-66
2021/05/04 05:44:46;;;;;;;4.80;4.40;;;9.50;61.90;;;;;;5031969;28;20033;-65
2021/05/04 05:47:17;;;;;;;3.58;3.20;;;9.60;61.90;;;;;;5034421;28;20088;-61
2021/05/04 05:49:42;;;;;;;5.35;4.38;;;9.70;61.50;;;;;;5034123;28;20070;-64
2021/05/04 05:52:11;;;;;;;4.90;4.40;;;9.70;61.40;;;;;;5035529;28;20116;-64
2021/05/04 05:54:41;;;;;;;4.20;3.80;;;9.80;61.20;;;;;;5035907;28;20083;-64
2021/05/04 05:57:13;;;;;;;5.00;4.20;;;9.80;61.00;;;;;;5032523;28;20036;-62
2021/05/04 05:59:41;;;;;;;5.03;4.20;;;9.90;60.80;;;;;;5035796;28;20519;-64
2021/05/04 06:02:09;;;;;;;5.05;4.25;;;10.00;60.80;;;;;;5033655;28;20041;-64
2021/05/04 06:04:42;;;;;;;5.72;3.78;;;10.00;60.60;;;;;;5036747;28;20476;-64
2021/05/04 06:07:12;;;;;;;5.38;3.03;;;10.10;60.60;;;;;;5036147;28;20029;-66
2021/05/04 06:09:45;;;;;;;5.25;3.58;;;10.20;60.40;;;;;;5035979;28;20043;-65
2021/05/04 06:12:15;;;;;;;5.22;3.50;;;10.20;60.30;;;;;;5027997;28;20034;-64
2021/05/04 06:14:41;;;;;;;3.53;2.90;;;10.30;60.30;;;;;;5036718;28;20411;-64
2021/05/04 06:17:11;;;;;;;4.22;3.17;;;10.40;60.20;;;;;;5036957;28;20033;-64
2021/05/04 06:19:39;;;;;;;4.68;3.70;;;10.40;60.10;;;;;;5036999;28;20037;-65
2021/05/04 06:22:07;;;;;;;6.75;4.30;;;10.50;60.10;;;;;;5035698;28;20119;-65
2021/05/04 06:24:37;;;;;;;6.97;4.10;;;10.50;60.10;;;;;;5037903;28;20033;-64
2021/05/04 06:27:10;;;;;;;3.80;3.08;;;10.60;59.90;;;;;;5037025;28;20135;-66
2021/05/04 06:29:35;;;;;;;2.63;2.42;;;10.70;59.80;;;;;;5035848;28;20041;-65
2021/05/04 06:32:10;;;;;;;3.13;2.53;;;10.80;60.00;;;;;;5033692;28;20032;-65
2021/05/04 06:34:36;;;;;;;3.22;2.92;;;10.80;59.90;;;;;;5035853;28;20037;-64
2021/05/04 06:37:09;;;;;;;3.60;3.05;;;10.90;60.00;;;;;;5037554;28;20051;-64
2021/05/04 06:39:39;;;;;;;4.13;3.00;;;11.00;59.90;;;;;;5034442;28;20136;-66
2021/05/04 06:42:10;;;;;;;3.35;3.00;;;11.10;59.70;;;;;;5034092;28;20041;-64
2021/05/04 06:44:37;;;;;;;2.80;2.35;;;11.20;59.40;;;;;;5034656;28;20037;-65
2021/05/04 06:47:08;;;;;;;3.38;2.33;;;11.30;59.30;;;;;;5035912;28;20041;-65
2021/05/04 06:49:38;;;;;;;2.40;2.10;;;11.40;59.20;;;;;;5035635;28;20500;-65
2021/05/04 06:52:11;;;;;;;3.25;2.22;;;11.50;59.10;;;;;;5035226;28;20037;-65
2021/05/04 06:54:42;;;;;;;2.70;2.35;;;11.60;58.80;;;;;;5039345;28;20022;-65
2021/05/04 06:57:09;;;;;;;4.18;2.45;;;11.60;58.50;;;;;;5038088;28;20033;-66
2021/05/04 06:59:37;;;;;;;2.58;2.38;;;11.80;58.40;;;;;;5041389;28;20037;-65
2021/05/04 07:02:05;;;;;;;4.38;2.10;;;11.80;58.00;;;;;;5027707;28;20082;-65
2021/05/04 07:04:33;;;;;;;2.40;2.20;;;11.90;57.90;;;;;;5038837;28;20032;-65
2021/05/04 07:07:01;;;;;;;4.75;2.40;;;11.90;57.50;;;;;;5044496;28;20033;-62
2021/05/04 07:09:29;;;;;;;2.25;2.00;;;12.00;57.50;;;;;;5037692;28;20072;-65
2021/05/04 07:11:59;;;;;;;4.78;2.70;;;12.10;57.30;;;;;;5036950;28;20095;-64
2021/05/04 07:14:29;;;;;;;3.85;2.90;;;12.20;57.20;;;;;;5038106;28;20034;-65
2021/05/04 07:16:55;;;;;;;2.05;1.95;;;12.20;57.00;;;;;;5039979;28;20424;-65
2021/05/04 07:19:21;;;;;;;3.63;2.90;;;12.30;56.90;;;;;;5040329;28;20025;-65
2021/05/04 07:21:46;;;;;;;3.75;3.00;;;12.40;56.60;;;;;;5037159;28;20044;-64
2021/05/04 07:24:19;;;;;;;3.63;2.53;;;12.40;56.10;;;;;;5040818;28;20484;-65
2021/05/04 07:26:47;;;;;;;3.72;2.30;;;12.50;56.00;;;;;;5035922;28;20030;-65
2021/05/04 07:29:13;;;;;;;2.40;2.20;;;12.60;55.60;;;;;;5039437;28;20049;-65
2021/05/04 07:31:41;;;;;;;4.20;2.10;;;12.60;55.70;;;;;;5037867;28;20064;-65
2021/05/04 07:34:09;;;;;;;2.08;1.75;;;12.70;55.80;;;;;;5037173;28;20538;-65
2021/05/04 07:36:40;;;;;;;1.95;1.85;;;12.80;55.50;;;;;;5036627;28;20046;-65
2021/05/04 07:39:08;;;;;;;3.63;2.47;;;12.90;55.00;;;;;;5039224;28;20519;-64
2021/05/04 07:41:36;;;;;;;2.45;2.10;;;13.00;55.30;;;;;;5037810;28;20037;-65
2021/05/04 07:44:07;;;;;;;2.50;2.30;;;13.00;54.90;;;;;;5038368;28;20036;-65
2021/05/04 07:46:35;;;;;;;3.35;2.05;;;13.10;54.50;;;;;;5043514;28;20065;-65
2021/05/04 07:49:05;;;;;;;4.28;2.20;;;13.20;54.60;;;;;;5038723;28;20557;-64
2021/05/04 07:51:35;;;;;;;2.67;2.17;;;13.30;54.50;;;;;;5037521;28;20128;-66
2021/05/04 07:54:03;;;;;;;3.45;2.20;;;13.40;54.00;;;;;;5037827;28;20033;-66
2021/05/04 07:56:31;;;;;;;4.10;2.10;;;13.50;54.40;;;;;;5037335;28;20037;-65
2021/05/04 07:58:59;;;;;;;3.20;2.22;;;13.50;54.10;;;;;;5035943;28;20037;-64
2021/05/04 08:01:25;;;;;;;2.58;1.90;;;13.60;53.70;;;;;;5038080;28;20033;-63
2021/05/04 08:03:53;;;;;;;6.18;2.28;;;13.70;53.40;;;;;;5037136;28;20029;-65
2021/05/04 08:06:21;;;;;;;3.60;1.85;;;13.70;53.10;;;;;;5037383;28;20077;-65
2021/05/04 08:08:49;;;;;;;2.40;1.67;;;13.80;53.10;;;;;;5034774;28;20117;-65
2021/05/04 08:11:19;;;;;;;14.30;2.45;;;13.80;53.40;;;;;;5034997;28;20079;-65
2021/05/04 08:13:52;;;;;;;1.95;1.85;;;13.90;53.00;;;;;;5037956;28;20593;-65
2021/05/04 08:16:19;;;;;;;3.17;2.40;;;14.00;52.90;;;;;;5039623;28;20037;-66
2021/05/04 08:18:50;;;;;;;4.28;2.10;;;14.10;52.90;;;;;;5038683;28;20052;-65
2021/05/04 08:21:20;;;;;;;6.32;2.00;;;14.10;52.70;;;;;;5036143;28;20037;-65
2021/05/04 08:23:46;;;;;;;4.63;2.70;;;14.20;52.50;;;;;;5044414;28;20037;-65
2021/05/04 08:26:15;;;;;;;4.13;2.15;;;14.30;52.60;;;;;;5038706;28;20037;-64
2021/05/04 08:28:43;;;;;;;5.72;2.40;;;14.30;52.30;;;;;;5037528;28;20049;-64
2021/05/04 08:31:10;;;;;;;5.90;2.60;;;14.40;52.00;;;;;;5036221;28;20061;-65
2021/05/04 08:33:36;;;;;;;4.20;2.95;;;14.40;51.40;;;;;;5037027;28;20572;-67
2021/05/04 08:36:02;;;;;;;4.47;2.78;;;14.50;50.90;;;;;;5038322;28;20128;-65
2021/05/04 08:38:27;;;;;;;3.72;2.10;;;14.60;51.30;;;;;;5035927;28;20064;-65
2021/05/04 08:40:58;;;;;;;4.55;2.55;;;14.60;51.40;;;;;;5037579;28;20034;-64
2021/05/04 08:43:32;;;;;;;3.03;2.10;;;14.70;51.50;;;;;;5037552;28;20211;-64
2021/05/04 08:46:01;;;;;;;2.42;1.98;;;14.90;50.60;;;;;;5035993;28;20029;-65
2021/05/04 08:48:31;;;;;;;2.85;1.60;;;15.00;50.60;;;;;;5037276;28;20048;-65
2021/05/04 08:51:02;;;;;;;2.00;1.90;;;15.10;50.80;;;;;;5036482;28;20082;-66
2021/05/04 08:53:29;;;;;;;2.13;1.77;;;15.20;50.10;;;;;;5033831;28;20034;-64
2021/05/04 08:55:55;;;;;;;2.88;1.50;;;15.40;49.80;;;;;;5038908;28;20420;-65
2021/05/04 08:58:24;;;;;;;1.73;1.63;;;15.50;49.60;;;;;;5034785;28;20048;-65
2021/05/04 09:00:54;;;;;;;2.28;1.67;;;15.60;49.80;;;;;;5035884;28;20132;-65
2021/05/04 09:03:33;;;;;;;2.92;1.77;;;15.70;48.90;;;;;;5032666;28;20470;-65
2021/05/04 09:08:58;;;;;;;2.05;1.88;;;15.80;48.20;;;;;;5035048;28;20451;-64
2021/05/04 09:19:57;;;;;;;4.60;1.70;;;16.20;45.50;;;;;;5038798;28;20531;-65
2021/05/04 09:22:42;;;;;;;2.22;1.50;;;16.30;46.30;;;;;;5036676;28;20044;-64
2021/05/04 09:25:35;;;;;;;3.95;1.90;;;16.40;46.00;;;;;;5035914;28;20038;-65
2021/05/04 09:28:12;;;;;;;3.55;1.60;;;16.40;46.30;;;;;;5036519;28;20121;-65
2021/05/04 09:30:41;;;;;;;4.10;1.30;;;16.50;46.70;;;;;;5034134;28;20048;-65
2021/05/04 09:33:14;;;;;;;2.40;1.70;;;16.50;47.30;;;;;;5037626;28;20022;-66
2021/05/04 09:35:42;;;;;;;1.50;1.40;;;16.60;47.10;;;;;;5035979;28;20025;-65
2021/05/04 09:38:18;;;;;;;3.40;1.55;;;16.70;47.40;;;;;;5035642;28;20119;-67
2021/05/04 09:40:47;;;;;;;6.25;1.60;;;16.70;46.80;;;;;;5036021;28;20036;-65
2021/05/04 09:43:20;;;;;;;2.72;1.70;;;16.80;46.20;;;;;;5035399;28;20112;-65
2021/05/04 09:45:51;;;;;;;3.15;1.92;;;16.80;46.60;;;;;;5033475;28;20041;-65
2021/05/04 09:48:37;;;;;;;5.68;1.70;;;16.80;45.40;;;;;;5037081;28;20159;-65
2021/05/04 09:51:15;;;;;;;5.80;1.77;;;16.90;44.60;;;;;;5036155;28;20033;-66
2021/05/04 09:54:00;;;;;;;4.05;1.70;;;16.90;45.00;;;;;;5034138;28;20025;-65
2021/05/04 09:56:37;;;;;;;2.42;1.52;;;16.90;45.30;;;;;;5033026;28;20121;-65
2021/05/04 09:59:07;;;;;;;4.85;2.00;;;16.90;44.20;;;;;;5035292;28;20109;-65
2021/05/04 10:01:33;;;;;;;1.70;1.60;;;16.90;45.50;;;;;;5034219;28;20044;-65
2021/05/04 10:04:04;;;;;;;1.70;1.60;;;17.00;45.00;;;;;;5035320;28;20057;-66
2021/05/04 10:06:32;;;;;;;4.13;1.75;;;17.00;45.30;;;;;;5035341;28;20032;-64
2021/05/04 10:09:03;;;;;;;4.50;1.67;;;17.00;45.40;;;;;;5035502;28;20073;-64
2021/05/04 10:11:32;;;;;;;2.33;1.70;;;17.00;45.50;;;;;;5035732;28;20033;-64
2021/05/04 10:14:00;;;;;;;3.00;2.35;;;17.00;44.90;;;;;;5035563;28;20117;-65
2021/05/04 10:16:29;;;;;;;3.60;2.00;;;17.00;45.00;;;;;;5033666;28;20041;-64
2021/05/04 10:19:06;;;;;;;3.38;1.95;;;17.00;45.10;;;;;;5042583;28;20037;-65
2021/05/04 10:21:39;;;;;;;2.50;2.00;;;17.00;44.90;;;;;;5042407;28;20049;-64
2021/05/04 10:24:07;;;;;;;2.58;1.75;;;17.10;45.40;;;;;;5036925;28;20033;-66
2021/05/04 10:26:33;;;;;;;3.30;1.67;;;17.10;45.60;;;;;;5035409;28;20030;-66
2021/05/04 10:29:04;;;;;;;2.40;1.70;;;17.20;45.00;;;;;;5035583;28;20079;-65
2021/05/04 10:31:39;;;;;;;2.22;1.83;;;17.20;45.30;;;;;;5038785;28;20430;-64
2021/05/04 10:34:26;;;;;;;2.15;1.80;;;17.30;45.30;;;;;;5038845;28;20045;-66
2021/05/04 10:37:04;;;;;;;1.67;1.52;;;17.30;44.00;;;;;;5040068;28;20033;-65
2021/05/04 10:39:34;;;;;;;4.15;1.40;;;17.30;44.00;;;;;;5039913;28;20029;-65
2021/05/04 10:42:05;;;;;;;1.95;1.63;;;17.30;44.10;;;;;;5037301;28;20108;-65
2021/05/04 10:44:54;;;;;;;3.40;1.70;;;17.30;44.00;;;;;;5039530;28;20404;-64
2021/05/04 10:47:46;;;;;;;4.38;1.73;;;17.40;43.90;;;;;;5052528;28;20029;-65
2021/05/04 10:50:53;;;;;;;2.22;1.70;;;17.40;44.00;;;;;;5039149;28;20044;-65
2021/05/04 10:53:28;;;;;;;4.28;2.22;;;17.40;43.40;;;;;;5038064;28;20030;-65
2021/05/04 10:55:59;;;;;;;1.60;1.50;;;17.50;44.10;;;;;;5039995;28;20037;-65
2021/05/04 10:58:41;;;;;;;3.42;2.50;;;17.50;44.20;;;;;;5036656;28;20025;-65
2021/05/04 11:01:10;;;;;;;2.97;1.63;;;17.60;44.20;;;;;;5039583;28;20052;-65
2021/05/04 11:03:35;;;;;;;2.00;1.70;;;17.60;44.50;;;;;;5039568;28;20033;-64
2021/05/04 11:06:11;;;;;;;1.70;1.50;;;17.70;44.80;;;;;;5038844;28;20031;-65
2021/05/04 11:08:43;;;;;;;1.80;1.45;;;17.70;44.10;;;;;;5045583;28;20037;-66
2021/05/04 11:11:37;;;;;;;2.05;1.40;;;17.80;44.20;;;;;;5035425;28;20056;-66
2021/05/04 11:14:22;;;;;;;1.52;1.40;;;17.80;43.50;;;;;;5046501;28;20606;-65
2021/05/04 11:16:56;;;;;;;5.90;1.50;;;17.80;44.50;;;;;;5038638;28;20033;-66
2021/05/04 11:19:34;;;;;;;7.57;1.67;;;17.80;44.00;;;;;;5040455;28;20489;-64
2021/05/04 11:22:04;;;;;;;1.40;1.30;;;17.80;43.50;;;;;;5038241;28;20112;-65
2021/05/04 11:24:32;;;;;;;5.65;1.55;;;17.90;43.00;;;;;;5038547;28;20517;-64
2021/05/04 11:27:00;;;;;;;1.50;1.40;;;17.90;43.50;;;;;;5036725;28;20037;-65
2021/05/04 11:29:36;;;;;;;1.80;1.50;;;17.90;43.40;;;;;;5039096;28;20041;-64
2021/05/04 11:32:14;;;;;;;2.90;1.55;;;18.00;43.00;;;;;;5038097;28;20349;-65
2021/05/04 11:34:45;;;;;;;3.92;1.60;;;18.00;43.00;;;;;;5054951;28;20029;-65
2021/05/04 11:37:35;;;;;;;3.25;1.40;;;18.10;43.30;;;;;;5038552;28;20129;-65
2021/05/04 11:40:08;;;;;;;1.83;1.50;;;18.10;42.50;;;;;;5038457;28;20542;-65
2021/05/04 11:42:42;;;;;;;2.90;1.38;;;18.20;43.10;;;;;;5037148;28;20033;-64
2021/05/04 11:45:24;;;;;;;1.65;1.50;;;18.20;43.00;;;;;;5038095;28;20037;-64
2021/05/04 11:47:56;;;;;;;1.48;1.38;;;18.30;43.60;;;;;;5045646;28;20034;-65
2021/05/04 11:50:28;;;;;;;3.33;1.75;;;18.40;43.00;;;;;;5037500;28;20419;-65
2021/05/04 11:53:05;;;;;;;4.13;1.60;;;18.50;42.20;;;;;;5036690;28;20049;-65
2021/05/04 11:55:40;;;;;;;3.13;1.60;;;18.60;41.40;;;;;;5040213;28;20044;-65
2021/05/04 11:58:13;;;;;;;1.70;1.60;;;18.70;41.90;;;;;;5036327;28;20048;-65
2021/05/04 12:00:42;;;;;;;2.78;1.70;;;18.70;42.30;;;;;;5036665;28;20040;-65
2021/05/04 12:03:18;;;;;;;3.72;2.08;;;18.80;42.40;;;;;;5037428;28;20029;-65
2021/05/04 12:05:48;;;;;;;3.42;1.75;;;18.90;42.50;;;;;;5035775;28;20124;-65
2021/05/04 12:08:15;;;;;;;2.00;1.60;;;18.90;42.00;;;;;;5037550;28;20041;-65
2021/05/04 12:10:49;;;;;;;2.35;1.45;;;19.00;42.10;;;;;;5035861;28;20036;-65
2021/05/04 12:13:21;;;;;;;3.28;1.40;;;19.10;41.40;;;;;;5032316;28;20061;-65
2021/05/04 12:15:56;;;;;;;3.80;1.33;;;19.10;40.50;;;;;;5036521;28;20026;-65
2021/05/04 12:18:27;;;;;;;3.50;1.58;;;19.10;40.90;;;;;;5038832;28;20030;-66
2021/05/04 12:20:55;;;;;;;2.45;1.52;;;19.10;40.30;;;;;;5037696;28;20030;-65
2021/05/04 12:23:31;;;;;;;1.55;1.23;;;19.10;40.60;;;;;;5038152;28;20025;-65
2021/05/04 12:26:10;;;;;;;1.23;1.05;;;19.00;40.20;;;;;;5037087;28;20037;-65
2021/05/04 12:28:37;;;;;;;1.92;1.20;;;19.00;40.50;;;;;;5036530;28;20508;-65
2021/05/04 12:31:09;;;;;;;2.72;1.40;;;18.90;39.50;;;;;;5037504;28;20038;-63
2021/05/04 12:33:41;;;;;;;1.77;1.20;;;18.90;40.20;;;;;;5037396;28;20455;-66
2021/05/04 12:36:25;;;;;;;3.42;1.52;;;18.90;40.20;;;;;;5037532;28;20033;-65
2021/05/04 12:38:58;;;;;;;1.23;1.13;;;18.90;40.40;;;;;;5037797;28;20117;-65
2021/05/04 12:41:35;;;;;;;5.25;1.20;;;18.90;40.40;;;;;;5035683;28;20033;-65
2021/05/04 12:44:25;;;;;;;2.00;1.13;;;18.90;40.60;;;;;;5035067;28;20038;-65
2021/05/04 12:46:59;;;;;;;12.52;1.25;;;18.90;40.80;;;;;;5038538;28;20040;-64
2021/05/04 12:49:41;;;;;;;1.48;1.20;;;18.90;40.30;;;;;;5037540;28;20033;-64
2021/05/04 12:52:11;;;;;;;4.28;1.30;;;19.00;40.50;;;;;;5035853;28;20291;-65
2021/05/04 12:54:40;;;;;;;1.70;1.23;;;18.90;40.60;;;;;;5038089;28;20261;-65
2021/05/04 12:57:17;;;;;;;1.17;1.08;;;18.90;40.50;;;;;;5035955;28;20526;-64
2021/05/04 12:59:43;;;;;;;1.98;1.20;;;18.90;40.20;;;;;;5036302;28;20072;-66
2021/05/04 13:02:19;;;;;;;8.35;1.60;;;18.90;39.70;;;;;;5032450;28;20539;-66
2021/05/04 13:07:46;;;;;;;1.00;0.90;;;18.70;39.50;;;;;;5037061;28;20033;-64
2021/05/04 13:10:20;;;;;;;1.40;1.30;;;18.70;40.20;;;;;;5037464;28;20044;-66
2021/05/04 13:13:26;;;;;;;;;;;18.60;40.10;;;;;;5033513;28;20781;-64
2021/05/04 13:19:33;;;;;;;1.30;1.20;;;18.60;40.80;;;;;;5035146;28;20105;-65
2021/05/04 13:30:27;;;;;;;2.67;1.15;;;18.60;39.20;;;;;;5036687;28;19991;-64
2021/05/04 13:32:56;;;;;;;1.77;0.90;;;18.60;40.90;;;;;;5036152;28;20069;-64
2021/05/04 13:35:27;;;;;;;6.28;1.05;;;18.60;41.20;;;;;;5037980;28;20067;-66